Terminal Aerodrome Forecast
Issued by NWS

Home | Current Version | Previous Version | Text Only | Print | Product List | Glossary On
Versions: 1 2 3 4 5 6 7 8 9 10 11 12 13 14 15
237
FTUS43 KBIS 211803 AAA
TAFMOT
TAF AMD
KMOT 211803Z 2118/2218 25021G26KT P6SM OVC028
     FM212300 27022G35KT P6SM BKN035 WS020/29030KT
     FM220300 27012KT P6SM SCT110 WS020/30035KT
     FM220800 24010KT P6SM FEW250
     FM221600 22017G25KT P6SM BKN150=

USA.gov is the U.S. government's official web portal to all federal, state and local government web resources and services.